sensor_id;sensor_type;location;lat;lon;timestamp;temperature;humidity
5130;DHT22;2583;50.946;6.954;2023-06-14T00:00:22;21.40;7.50
5130;DHT22;2583;50.946;6.954;2023-06-14T00:02:49;21.40;7.40
5130;DHT22;2583;50.946;6.954;2023-06-14T00:05:16;21.40;7.30
5130;DHT22;2583;50.946;6.954;2023-06-14T00:07:42;21.30;7.50
5130;DHT22;2583;50.946;6.954;2023-06-14T00:10:10;21.30;7.60
5130;DHT22;2583;50.946;6.954;2023-06-14T00:12:38;21.30;7.70
5130;DHT22;2583;50.946;6.954;2023-06-14T00:15:06;21.30;7.90
5130;DHT22;2583;50.946;6.954;2023-06-14T00:17:33;21.30;8.10
5130;DHT22;2583;50.946;6.954;2023-06-14T00:20:03;21.20;8.10
5130;DHT22;2583;50.946;6.954;2023-06-14T00:22:33;21.20;7.90
5130;DHT22;2583;50.946;6.954;2023-06-14T00:25:00;21.10;8.10
5130;DHT22;2583;50.946;6.954;2023-06-14T00:27:37;21.10;7.80
5130;DHT22;2583;50.946;6.954;2023-06-14T00:30:04;21.10;7.60
5130;DHT22;2583;50.946;6.954;2023-06-14T00:32:31;21.10;7.80
5130;DHT22;2583;50.946;6.954;2023-06-14T00:34:59;21.00;8.00
5130;DHT22;2583;50.946;6.954;2023-06-14T00:37:25;21.00;7.60
5130;DHT22;2583;50.946;6.954;2023-06-14T00:39:52;21.00;7.30
5130;DHT22;2583;50.946;6.954;2023-06-14T00:42:26;21.00;7.50
5130;DHT22;2583;50.946;6.954;2023-06-14T00:44:53;21.00;7.50
5130;DHT22;2583;50.946;6.954;2023-06-14T00:47:21;21.00;7.90
5130;DHT22;2583;50.946;6.954;2023-06-14T00:49:50;21.00;7.80
5130;DHT22;2583;50.946;6.954;2023-06-14T00:52:20;20.80;7.90
5130;DHT22;2583;50.946;6.954;2023-06-14T00:54:47;20.90;8.10
5130;DHT22;2583;50.946;6.954;2023-06-14T00:57:14;20.80;7.90
5130;DHT22;2583;50.946;6.954;2023-06-14T00:59:46;20.80;8.10
5130;DHT22;2583;50.946;6.954;2023-06-14T01:02:14;20.80;8.10
5130;DHT22;2583;50.946;6.954;2023-06-14T01:04:48;20.80;8.60
5130;DHT22;2583;50.946;6.954;2023-06-14T01:13:03;20.60;8.90
5130;DHT22;2583;50.946;6.954;2023-06-14T01:15:32;20.50;8.60
5130;DHT22;2583;50.946;6.954;2023-06-14T01:17:59;20.50;8.70
5130;DHT22;2583;50.946;6.954;2023-06-14T01:20:31;20.50;8.60
5130;DHT22;2583;50.946;6.954;2023-06-14T01:22:59;20.40;8.70
5130;DHT22;2583;50.946;6.954;2023-06-14T01:25:26;20.40;8.70
5130;DHT22;2583;50.946;6.954;2023-06-14T01:28:03;20.40;8.90
5130;DHT22;2583;50.946;6.954;2023-06-14T01:30:37;20.40;8.90
5130;DHT22;2583;50.946;6.954;2023-06-14T01:33:05;20.40;9.00
5130;DHT22;2583;50.946;6.954;2023-06-14T01:35:32;20.40;9.10
5130;DHT22;2583;50.946;6.954;2023-06-14T01:38:00;20.30;9.30
5130;DHT22;2583;50.946;6.954;2023-06-14T01:40:27;20.20;9.30
5130;DHT22;2583;50.946;6.954;2023-06-14T01:42:54;20.20;9.50
5130;DHT22;2583;50.946;6.954;2023-06-14T01:45:21;20.10;9.50
5130;DHT22;2583;50.946;6.954;2023-06-14T01:47:49;20.10;9.70
5130;DHT22;2583;50.946;6.954;2023-06-14T01:50:16;20.00;9.80
5130;DHT22;2583;50.946;6.954;2023-06-14T01:52:45;20.00;10.00
5130;DHT22;2583;50.946;6.954;2023-06-14T01:55:12;19.90;10.00
5130;DHT22;2583;50.946;6.954;2023-06-14T01:57:38;19.90;10.10
5130;DHT22;2583;50.946;6.954;2023-06-14T02:00:06;19.90;10.50
5130;DHT22;2583;50.946;6.954;2023-06-14T02:02:34;19.90;10.50
5130;DHT22;2583;50.946;6.954;2023-06-14T02:05:02;19.80;9.80
5130;DHT22;2583;50.946;6.954;2023-06-14T02:07:29;19.90;9.60
5130;DHT22;2583;50.946;6.954;2023-06-14T02:09:55;20.00;9.00
5130;DHT22;2583;50.946;6.954;2023-06-14T02:12:22;20.00;9.00
5130;DHT22;2583;50.946;6.954;2023-06-14T02:14:49;20.00;8.70
5130;DHT22;2583;50.946;6.954;2023-06-14T02:17:16;20.00;8.50
5130;DHT22;2583;50.946;6.954;2023-06-14T02:19:43;20.00;8.70
5130;DHT22;2583;50.946;6.954;2023-06-14T02:22:10;20.00;8.60
5130;DHT22;2583;50.946;6.954;2023-06-14T02:24:37;20.00;8.80
5130;DHT22;2583;50.946;6.954;2023-06-14T02:27:04;20.00;8.30
5130;DHT22;2583;50.946;6.954;2023-06-14T02:29:31;20.00;8.30
5130;DHT22;2583;50.946;6.954;2023-06-14T02:31:58;20.00;8.30
5130;DHT22;2583;50.946;6.954;2023-06-14T02:34:25;20.00;8.50
5130;DHT22;2583;50.946;6.954;2023-06-14T02:36:51;20.00;8.60
5130;DHT22;2583;50.946;6.954;2023-06-14T02:39:19;20.00;8.40
5130;DHT22;2583;50.946;6.954;2023-06-14T02:41:47;20.00;8.70
5130;DHT22;2583;50.946;6.954;2023-06-14T02:44:14;19.90;8.70
5130;DHT22;2583;50.946;6.954;2023-06-14T02:46:41;19.90;8.70
5130;DHT22;2583;50.946;6.954;2023-06-14T02:49:11;19.90;8.80
5130;DHT22;2583;50.946;6.954;2023-06-14T02:51:37;19.90;8.80
5130;DHT22;2583;50.946;6.954;2023-06-14T02:54:04;19.90;8.70
5130;DHT22;2583;50.946;6.954;2023-06-14T02:56:31;19.90;8.80
5130;DHT22;2583;50.946;6.954;2023-06-14T02:58:58;19.90;9.10
5130;DHT22;2583;50.946;6.954;2023-06-14T03:01:26;19.90;9.20
5130;DHT22;2583;50.946;6.954;2023-06-14T03:04:03;19.90;9.40
5130;DHT22;2583;50.946;6.954;2023-06-14T03:06:30;19.80;9.20
5130;DHT22;2583;50.946;6.954;2023-06-14T03:08:58;19.80;9.00
5130;DHT22;2583;50.946;6.954;2023-06-14T03:11:29;19.80;8.70
5130;DHT22;2583;50.946;6.954;2023-06-14T03:13:56;19.80;9.00
5130;DHT22;2583;50.946;6.954;2023-06-14T03:16:23;19.80;9.20
5130;DHT22;2583;50.946;6.954;2023-06-14T03:18:51;19.80;8.90
5130;DHT22;2583;50.946;6.954;2023-06-14T03:21:19;19.70;8.60
5130;DHT22;2583;50.946;6.954;2023-06-14T03:23:49;19.70;8.90
5130;DHT22;2583;50.946;6.954;2023-06-14T03:26:16;19.70;9.10
5130;DHT22;2583;50.946;6.954;2023-06-14T03:28:46;19.70;8.80
5130;DHT22;2583;50.946;6.954;2023-06-14T03:31:14;19.70;9.00
5130;DHT22;2583;50.946;6.954;2023-06-14T03:33:42;19.60;8.90
5130;DHT22;2583;50.946;6.954;2023-06-14T03:36:08;19.70;8.90
5130;DHT22;2583;50.946;6.954;2023-06-14T03:38:35;19.60;8.70
5130;DHT22;2583;50.946;6.954;2023-06-14T03:41:02;19.60;8.80
5130;DHT22;2583;50.946;6.954;2023-06-14T03:43:29;19.60;9.20
5130;DHT22;2583;50.946;6.954;2023-06-14T03:45:56;19.60;9.30
5130;DHT22;2583;50.946;6.954;2023-06-14T03:48:23;19.60;8.80
5130;DHT22;2583;50.946;6.954;2023-06-14T03:50:50;19.60;8.80
5130;DHT22;2583;50.946;6.954;2023-06-14T03:53:17;19.60;9.50
5130;DHT22;2583;50.946;6.954;2023-06-14T03:55:47;19.60;9.40
5130;DHT22;2583;50.946;6.954;2023-06-14T03:58:18;19.60;9.40
5130;DHT22;2583;50.946;6.954;2023-06-14T04:00:45;19.50;9.30
5130;DHT22;2583;50.946;6.954;2023-06-14T04:03:12;19.50;9.20
5130;DHT22;2583;50.946;6.954;2023-06-14T04:05:55;19.50;9.10
5130;DHT22;2583;50.946;6.954;2023-06-14T04:08:23;19.50;9.30
5130;DHT22;2583;50.946;6.954;2023-06-14T04:10:51;19.50;9.20
5130;DHT22;2583;50.946;6.954;2023-06-14T04:13:18;19.50;9.10
5130;DHT22;2583;50.946;6.954;2023-06-14T04:15:44;19.50;9.40
5130;DHT22;2583;50.946;6.954;2023-06-14T04:18:12;19.40;8.20
5130;DHT22;2583;50.946;6.954;2023-06-14T04:20:39;19.50;8.40
5130;DHT22;2583;50.946;6.954;2023-06-14T04:23:16;19.50;8.50
5130;DHT22;2583;50.946;6.954;2023-06-14T04:25:46;19.50;8.40
5130;DHT22;2583;50.946;6.954;2023-06-14T04:28:14;19.50;8.40
5130;DHT22;2583;50.946;6.954;2023-06-14T04:30:42;19.50;8.60
5130;DHT22;2583;50.946;6.954;2023-06-14T04:33:09;19.50;8.40
5130;DHT22;2583;50.946;6.954;2023-06-14T04:35:37;19.50;8.50
5130;DHT22;2583;50.946;6.954;2023-06-14T04:38:04;19.60;8.50
5130;DHT22;2583;50.946;6.954;2023-06-14T04:40:36;19.50;8.40
5130;DHT22;2583;50.946;6.954;2023-06-14T04:43:09;19.60;8.30
5130;DHT22;2583;50.946;6.954;2023-06-14T04:45:38;19.60;8.40
5130;DHT22;2583;50.946;6.954;2023-06-14T04:48:06;19.60;8.20
5130;DHT22;2583;50.946;6.954;2023-06-14T04:50:33;19.60;8.20
5130;DHT22;2583;50.946;6.954;2023-06-14T04:53:01;19.60;8.30
5130;DHT22;2583;50.946;6.954;2023-06-14T04:55:29;19.60;8.30
5130;DHT22;2583;50.946;6.954;2023-06-14T04:57:56;19.60;8.30
5130;DHT22;2583;50.946;6.954;2023-06-14T05:00:23;19.60;8.40
5130;DHT22;2583;50.946;6.954;2023-06-14T05:02:50;19.60;8.50
5130;DHT22;2583;50.946;6.954;2023-06-14T05:05:17;19.60;8.90
5130;DHT22;2583;50.946;6.954;2023-06-14T05:07:44;19.60;8.50
5130;DHT22;2583;50.946;6.954;2023-06-14T05:10:11;19.60;8.60
5130;DHT22;2583;50.946;6.954;2023-06-14T05:12:38;19.60;8.40
5130;DHT22;2583;50.946;6.954;2023-06-14T05:15:05;19.60;8.50
5130;DHT22;2583;50.946;6.954;2023-06-14T05:17:32;19.60;8.50
5130;DHT22;2583;50.946;6.954;2023-06-14T05:19:59;19.70;8.80
5130;DHT22;2583;50.946;6.954;2023-06-14T05:22:26;19.70;8.60
5130;DHT22;2583;50.946;6.954;2023-06-14T05:24:53;19.60;8.60
5130;DHT22;2583;50.946;6.954;2023-06-14T05:27:20;19.60;8.60
5130;DHT22;2583;50.946;6.954;2023-06-14T05:29:47;19.60;9.00
5130;DHT22;2583;50.946;6.954;2023-06-14T05:32:13;19.60;9.00
5130;DHT22;2583;50.946;6.954;2023-06-14T05:34:40;19.60;9.10
5130;DHT22;2583;50.946;6.954;2023-06-14T05:37:07;19.70;9.30
5130;DHT22;2583;50.946;6.954;2023-06-14T05:39:34;19.80;9.10
5130;DHT22;2583;50.946;6.954;2023-06-14T05:42:01;19.80;9.10
5130;DHT22;2583;50.946;6.954;2023-06-14T05:44:27;19.80;9.10
5130;DHT22;2583;50.946;6.954;2023-06-14T05:46:54;19.80;9.20
5130;DHT22;2583;50.946;6.954;2023-06-14T05:49:21;19.90;8.90
5130;DHT22;2583;50.946;6.954;2023-06-14T05:51:48;19.90;8.80
5130;DHT22;2583;50.946;6.954;2023-06-14T05:54:15;20.00;9.00
5130;DHT22;2583;50.946;6.954;2023-06-14T05:56:41;20.00;9.00
5130;DHT22;2583;50.946;6.954;2023-06-14T05:59:08;20.00;8.80
5130;DHT22;2583;50.946;6.954;2023-06-14T06:01:35;20.00;8.90
5130;DHT22;2583;50.946;6.954;2023-06-14T06:04:03;20.00;9.00
5130;DHT22;2583;50.946;6.954;2023-06-14T06:06:30;20.00;9.70
5130;DHT22;2583;50.946;6.954;2023-06-14T06:08:57;20.20;9.30
5130;DHT22;2583;50.946;6.954;2023-06-14T06:11:24;20.20;9.20
5130;DHT22;2583;50.946;6.954;2023-06-14T06:13:51;20.30;9.10
5130;DHT22;2583;50.946;6.954;2023-06-14T06:16:18;20.30;8.90
5130;DHT22;2583;50.946;6.954;2023-06-14T06:18:44;20.40;8.70
5130;DHT22;2583;50.946;6.954;2023-06-14T06:21:11;20.50;8.70
5130;DHT22;2583;50.946;6.954;2023-06-14T06:23:38;20.60;8.60
5130;DHT22;2583;50.946;6.954;2023-06-14T06:26:05;20.60;8.30
5130;DHT22;2583;50.946;6.954;2023-06-14T06:28:32;20.70;8.40
5130;DHT22;2583;50.946;6.954;2023-06-14T06:30:58;20.70;8.40
5130;DHT22;2583;50.946;6.954;2023-06-14T06:33:25;20.80;8.30
5130;DHT22;2583;50.946;6.954;2023-06-14T06:35:52;20.90;8.10
5130;DHT22;2583;50.946;6.954;2023-06-14T06:38:19;20.90;8.10
5130;DHT22;2583;50.946;6.954;2023-06-14T06:40:45;21.00;8.20
5130;DHT22;2583;50.946;6.954;2023-06-14T06:43:12;21.10;7.90
5130;DHT22;2583;50.946;6.954;2023-06-14T06:45:43;21.10;7.80
5130;DHT22;2583;50.946;6.954;2023-06-14T06:48:10;21.20;7.70
5130;DHT22;2583;50.946;6.954;2023-06-14T06:50:37;21.30;7.80
5130;DHT22;2583;50.946;6.954;2023-06-14T06:53:04;21.30;7.80
5130;DHT22;2583;50.946;6.954;2023-06-14T06:55:31;21.40;7.80
5130;DHT22;2583;50.946;6.954;2023-06-14T06:57:58;21.50;7.40
5130;DHT22;2583;50.946;6.954;2023-06-14T07:00:26;21.50;7.30
5130;DHT22;2583;50.946;6.954;2023-06-14T07:02:54;21.60;7.40
5130;DHT22;2583;50.946;6.954;2023-06-14T07:05:21;21.70;7.10
5130;DHT22;2583;50.946;6.954;2023-06-14T07:07:48;21.70;7.20
5130;DHT22;2583;50.946;6.954;2023-06-14T07:10:15;21.70;7.10
5130;DHT22;2583;50.946;6.954;2023-06-14T07:12:42;21.70;7.30
5130;DHT22;2583;50.946;6.954;2023-06-14T07:15:09;21.80;7.40
5130;DHT22;2583;50.946;6.954;2023-06-14T07:17:36;21.90;7.60
5130;DHT22;2583;50.946;6.954;2023-06-14T07:20:04;22.00;7.00
5130;DHT22;2583;50.946;6.954;2023-06-14T07:22:41;22.00;6.80
5130;DHT22;2583;50.946;6.954;2023-06-14T07:25:12;22.00;6.80
5130;DHT22;2583;50.946;6.954;2023-06-14T07:27:43;22.00;6.80
5130;DHT22;2583;50.946;6.954;2023-06-14T07:30:10;22.00;6.50
5130;DHT22;2583;50.946;6.954;2023-06-14T07:32:38;22.20;7.00
5130;DHT22;2583;50.946;6.954;2023-06-14T07:35:05;22.30;7.40
5130;DHT22;2583;50.946;6.954;2023-06-14T07:37:32;22.40;6.40
5130;DHT22;2583;50.946;6.954;2023-06-14T07:39:58;22.40;6.60
5130;DHT22;2583;50.946;6.954;2023-06-14T07:42:25;22.50;6.70
5130;DHT22;2583;50.946;6.954;2023-06-14T07:44:52;22.60;6.60
5130;DHT22;2583;50.946;6.954;2023-06-14T07:47:20;22.60;5.90
5130;DHT22;2583;50.946;6.954;2023-06-14T07:49:47;22.70;5.60
5130;DHT22;2583;50.946;6.954;2023-06-14T07:52:13;22.80;5.20
5130;DHT22;2583;50.946;6.954;2023-06-14T07:54:40;22.90;5.10
5130;DHT22;2583;50.946;6.954;2023-06-14T07:57:07;23.00;4.70
5130;DHT22;2583;50.946;6.954;2023-06-14T07:59:35;23.10;4.60
5130;DHT22;2583;50.946;6.954;2023-06-14T08:02:02;23.10;4.40
5130;DHT22;2583;50.946;6.954;2023-06-14T08:04:29;23.10;4.10
5130;DHT22;2583;50.946;6.954;2023-06-14T08:06:56;23.20;3.90
5130;DHT22;2583;50.946;6.954;2023-06-14T08:09:23;23.20;3.10
5130;DHT22;2583;50.946;6.954;2023-06-14T08:11:51;23.40;3.10
5130;DHT22;2583;50.946;6.954;2023-06-14T08:14:18;23.40;3.00
5130;DHT22;2583;50.946;6.954;2023-06-14T08:16:44;23.40;2.10
5130;DHT22;2583;50.946;6.954;2023-06-14T08:19:11;23.40;1.60
5130;DHT22;2583;50.946;6.954;2023-06-14T08:21:38;23.40;1.30
5130;DHT22;2583;50.946;6.954;2023-06-14T08:24:05;23.50;1.90
5130;DHT22;2583;50.946;6.954;2023-06-14T08:26:32;23.60;1.00
5130;DHT22;2583;50.946;6.954;2023-06-14T08:28:58;23.60;1.00
5130;DHT22;2583;50.946;6.954;2023-06-14T08:31:25;23.70;1.00
5130;DHT22;2583;50.946;6.954;2023-06-14T08:33:54;23.80;1.00
5130;DHT22;2583;50.946;6.954;2023-06-14T08:36:21;23.80;1.00
5130;DHT22;2583;50.946;6.954;2023-06-14T08:38:49;23.90;1.00
5130;DHT22;2583;50.946;6.954;2023-06-14T08:41:21;23.90;1.00
5130;DHT22;2583;50.946;6.954;2023-06-14T08:43:48;23.90;1.00
5130;DHT22;2583;50.946;6.954;2023-06-14T08:46:17;24.00;1.00
5130;DHT22;2583;50.946;6.954;2023-06-14T08:48:49;24.00;1.00
5130;DHT22;2583;50.946;6.954;2023-06-14T08:51:18;24.10;1.00
5130;DHT22;2583;50.946;6.954;2023-06-14T08:53:46;24.20;1.00
5130;DHT22;2583;50.946;6.954;2023-06-14T08:56:18;24.40;1.00
5130;DHT22;2583;50.946;6.954;2023-06-14T08:58:47;24.40;1.00
5130;DHT22;2583;50.946;6.954;2023-06-14T09:01:14;24.30;1.00
5130;DHT22;2583;50.946;6.954;2023-06-14T09:03:43;24.30;1.00
5130;DHT22;2583;50.946;6.954;2023-06-14T09:06:11;24.40;1.00
5130;DHT22;2583;50.946;6.954;2023-06-14T09:08:43;24.40;1.00
5130;DHT22;2583;50.946;6.954;2023-06-14T09:11:14;24.40;1.00
5130;DHT22;2583;50.946;6.954;2023-06-14T09:13:42;24.60;1.00
5130;DHT22;2583;50.946;6.954;2023-06-14T09:16:09;24.60;1.00
5130;DHT22;2583;50.946;6.954;2023-06-14T09:18:41;24.80;1.00
5130;DHT22;2583;50.946;6.954;2023-06-14T09:21:11;24.80;1.00
5130;DHT22;2583;50.946;6.954;2023-06-14T09:23:40;24.90;1.00
5130;DHT22;2583;50.946;6.954;2023-06-14T09:26:08;24.40;1.00
5130;DHT22;2583;50.946;6.954;2023-06-14T09:28:36;24.40;1.00
5130;DHT22;2583;50.946;6.954;2023-06-14T09:31:07;24.60;1.00
5130;DHT22;2583;50.946;6.954;2023-06-14T09:33:36;24.80;1.00
5130;DHT22;2583;50.946;6.954;2023-06-14T09:36:04;24.80;1.00
5130;DHT22;2583;50.946;6.954;2023-06-14T09:38:36;25.00;1.00
5130;DHT22;2583;50.946;6.954;2023-06-14T09:41:03;24.90;1.00
5130;DHT22;2583;50.946;6.954;2023-06-14T09:43:30;24.90;1.00
5130;DHT22;2583;50.946;6.954;2023-06-14T09:46:01;25.10;1.00
5130;DHT22;2583;50.946;6.954;2023-06-14T09:48:27;25.30;1.00
5130;DHT22;2583;50.946;6.954;2023-06-14T09:50:55;25.30;1.00
5130;DHT22;2583;50.946;6.954;2023-06-14T09:53:24;25.40;1.00
5130;DHT22;2583;50.946;6.954;2023-06-14T09:55:52;25.30;1.00
5130;DHT22;2583;50.946;6.954;2023-06-14T09:58:23;25.30;1.00
5130;DHT22;2583;50.946;6.954;2023-06-14T10:00:51;25.20;1.00
5130;DHT22;2583;50.946;6.954;2023-06-14T10:03:27;25.10;1.00
5130;DHT22;2583;50.946;6.954;2023-06-14T10:06:02;25.20;1.00
5130;DHT22;2583;50.946;6.954;2023-06-14T10:08:32;25.10;1.00
5130;DHT22;2583;50.946;6.954;2023-06-14T10:11:03;24.90;1.00
5130;DHT22;2583;50.946;6.954;2023-06-14T10:13:32;25.00;1.00
5130;DHT22;2583;50.946;6.954;2023-06-14T10:16:37;25.00;1.00
5130;DHT22;2583;50.946;6.954;2023-06-14T10:21:57;25.30;1.00
5130;DHT22;2583;50.946;6.954;2023-06-14T10:24:45;25.40;1.00
5130;DHT22;2583;50.946;6.954;2023-06-14T10:27:15;25.40;1.00
5130;DHT22;2583;50.946;6.954;2023-06-14T10:30:06;25.40;1.00
5130;DHT22;2583;50.946;6.954;2023-06-14T10:32:34;25.60;1.00
5130;DHT22;2583;50.946;6.954;2023-06-14T10:35:04;25.80;1.00
5130;DHT22;2583;50.946;6.954;2023-06-14T10:37:32;25.80;1.00
5130;DHT22;2583;50.946;6.954;2023-06-14T10:39:59;25.70;1.00
5130;DHT22;2583;50.946;6.954;2023-06-14T10:42:32;25.60;1.00
5130;DHT22;2583;50.946;6.954;2023-06-14T10:45:00;25.70;1.00
5130;DHT22;2583;50.946;6.954;2023-06-14T10:47:31;25.80;1.00
5130;DHT22;2583;50.946;6.954;2023-06-14T10:52:29;25.60;1.00
5130;DHT22;2583;50.946;6.954;2023-06-14T10:57:33;25.80;1.00
5130;DHT22;2583;50.946;6.954;2023-06-14T11:00:16;25.80;1.00
5130;DHT22;2583;50.946;6.954;2023-06-14T11:05:41;25.80;1.00
5130;DHT22;2583;50.946;6.954;2023-06-14T11:10:43;25.90;1.00
5130;DHT22;2583;50.946;6.954;2023-06-14T11:13:10;25.90;1.00
5130;DHT22;2583;50.946;6.954;2023-06-14T11:15:38;25.70;1.00
5130;DHT22;2583;50.946;6.954;2023-06-14T11:18:06;25.80;1.10
5130;DHT22;2583;50.946;6.954;2023-06-14T11:20:35;25.70;1.20
5130;DHT22;2583;50.946;6.954;2023-06-14T11:23:02;25.80;1.80
5130;DHT22;2583;50.946;6.954;2023-06-14T11:25:29;25.70;2.10
5130;DHT22;2583;50.946;6.954;2023-06-14T11:27:57;25.70;2.40
5130;DHT22;2583;50.946;6.954;2023-06-14T11:30:24;26.00;2.10
5130;DHT22;2583;50.946;6.954;2023-06-14T11:32:53;26.20;2.00
5130;DHT22;2583;50.946;6.954;2023-06-14T11:35:24;26.30;2.10
5130;DHT22;2583;50.946;6.954;2023-06-14T11:37:57;26.30;2.30
5130;DHT22;2583;50.946;6.954;2023-06-14T11:40:25;26.40;2.30
5130;DHT22;2583;50.946;6.954;2023-06-14T11:42:59;26.40;2.20
5130;DHT22;2583;50.946;6.954;2023-06-14T11:45:27;26.40;2.40
5130;DHT22;2583;50.946;6.954;2023-06-14T11:47:55;26.60;2.70
5130;DHT22;2583;50.946;6.954;2023-06-14T11:50:25;26.50;2.60
5130;DHT22;2583;50.946;6.954;2023-06-14T11:52:54;26.40;2.80
5130;DHT22;2583;50.946;6.954;2023-06-14T11:55:22;26.50;2.60
5130;DHT22;2583;50.946;6.954;2023-06-14T11:57:50;26.70;2.60
5130;DHT22;2583;50.946;6.954;2023-06-14T12:00:17;26.80;2.80
5130;DHT22;2583;50.946;6.954;2023-06-14T12:02:53;26.90;2.00
5130;DHT22;2583;50.946;6.954;2023-06-14T12:05:23;27.20;2.30
5130;DHT22;2583;50.946;6.954;2023-06-14T12:07:50;27.60;1.80
5130;DHT22;2583;50.946;6.954;2023-06-14T12:10:20;28.10;1.40
5130;DHT22;2583;50.946;6.954;2023-06-14T12:12:46;28.30;1.20
5130;DHT22;2583;50.946;6.954;2023-06-14T12:15:13;28.60;1.00
5130;DHT22;2583;50.946;6.954;2023-06-14T12:17:42;28.80;1.00
5130;DHT22;2583;50.946;6.954;2023-06-14T12:20:12;28.70;1.00
5130;DHT22;2583;50.946;6.954;2023-06-14T12:22:54;28.80;1.00
5130;DHT22;2583;50.946;6.954;2023-06-14T12:25:34;29.10;1.00
5130;DHT22;2583;50.946;6.954;2023-06-14T12:28:06;29.20;1.00
5130;DHT22;2583;50.946;6.954;2023-06-14T12:30:35;29.30;1.00
5130;DHT22;2583;50.946;6.954;2023-06-14T12:33:03;29.70;1.00
5130;DHT22;2583;50.946;6.954;2023-06-14T12:35:30;30.10;1.00
5130;DHT22;2583;50.946;6.954;2023-06-14T12:37:57;30.30;1.00
5130;DHT22;2583;50.946;6.954;2023-06-14T12:40:24;30.30;1.00
5130;DHT22;2583;50.946;6.954;2023-06-14T12:42:50;30.30;1.00
5130;DHT22;2583;50.946;6.954;2023-06-14T12:45:17;30.70;1.00
5130;DHT22;2583;50.946;6.954;2023-06-14T12:47:45;30.50;1.00
5130;DHT22;2583;50.946;6.954;2023-06-14T12:50:12;30.70;1.00
5130;DHT22;2583;50.946;6.954;2023-06-14T12:52:39;31.00;1.00
5130;DHT22;2583;50.946;6.954;2023-06-14T12:55:06;30.30;1.00
5130;DHT22;2583;50.946;6.954;2023-06-14T12:57:33;29.60;1.00
5130;DHT22;2583;50.946;6.954;2023-06-14T13:00:03;29.20;1.00
5130;DHT22;2583;50.946;6.954;2023-06-14T13:02:31;28.90;1.00
5130;DHT22;2583;50.946;6.954;2023-06-14T13:04:58;28.80;1.00
5130;DHT22;2583;50.946;6.954;2023-06-14T13:07:25;29.30;1.00
5130;DHT22;2583;50.946;6.954;2023-06-14T13:09:52;28.90;1.00
5130;DHT22;2583;50.946;6.954;2023-06-14T13:12:18;28.30;1.00
5130;DHT22;2583;50.946;6.954;2023-06-14T13:14:45;27.90;1.00
5130;DHT22;2583;50.946;6.954;2023-06-14T13:17:12;28.10;1.00
5130;DHT22;2583;50.946;6.954;2023-06-14T13:19:39;28.80;1.00
5130;DHT22;2583;50.946;6.954;2023-06-14T13:22:06;29.60;1.00
5130;DHT22;2583;50.946;6.954;2023-06-14T13:24:34;30.50;1.00
5130;DHT22;2583;50.946;6.954;2023-06-14T13:27:01;30.90;1.00
5130;DHT22;2583;50.946;6.954;2023-06-14T13:29:28;30.50;1.00
5130;DHT22;2583;50.946;6.954;2023-06-14T13:31:54;29.90;1.00
5130;DHT22;2583;50.946;6.954;2023-06-14T13:34:22;30.10;1.00
5130;DHT22;2583;50.946;6.954;2023-06-14T13:36:49;31.00;1.00
5130;DHT22;2583;50.946;6.954;2023-06-14T13:39:16;31.60;1.00
5130;DHT22;2583;50.946;6.954;2023-06-14T13:41:43;32.20;1.00
5130;DHT22;2583;50.946;6.954;2023-06-14T13:44:10;33.00;1.00
5130;DHT22;2583;50.946;6.954;2023-06-14T13:46:42;33.50;1.00
5130;DHT22;2583;50.946;6.954;2023-06-14T13:49:09;34.20;1.00
5130;DHT22;2583;50.946;6.954;2023-06-14T13:51:37;33.70;1.00
5130;DHT22;2583;50.946;6.954;2023-06-14T13:54:04;33.90;1.00
5130;DHT22;2583;50.946;6.954;2023-06-14T13:56:31;34.30;1.00
5130;DHT22;2583;50.946;6.954;2023-06-14T13:58:57;34.50;1.00
5130;DHT22;2583;50.946;6.954;2023-06-14T14:01:24;35.10;1.00
5130;DHT22;2583;50.946;6.954;2023-06-14T14:03:52;34.90;1.00
5130;DHT22;2583;50.946;6.954;2023-06-14T14:06:19;35.00;1.00
5130;DHT22;2583;50.946;6.954;2023-06-14T14:08:47;35.20;1.00
5130;DHT22;2583;50.946;6.954;2023-06-14T14:11:13;35.10;1.00
5130;DHT22;2583;50.946;6.954;2023-06-14T14:13:42;35.20;1.00
5130;DHT22;2583;50.946;6.954;2023-06-14T14:16:09;35.40;1.00
5130;DHT22;2583;50.946;6.954;2023-06-14T14:18:37;35.20;1.00
5130;DHT22;2583;50.946;6.954;2023-06-14T14:21:05;34.70;1.00
5130;DHT22;2583;50.946;6.954;2023-06-14T14:23:32;34.90;1.00
5130;DHT22;2583;50.946;6.954;2023-06-14T14:25:59;34.20;1.00
5130;DHT22;2583;50.946;6.954;2023-06-14T14:28:30;33.20;1.00
5130;DHT22;2583;50.946;6.954;2023-06-14T14:30:57;32.50;1.00
5130;DHT22;2583;50.946;6.954;2023-06-14T14:33:24;31.90;1.00
5130;DHT22;2583;50.946;6.954;2023-06-14T14:35:51;30.80;1.00
5130;DHT22;2583;50.946;6.954;2023-06-14T14:38:18;30.20;1.00
5130;DHT22;2583;50.946;6.954;2023-06-14T14:40:45;30.00;1.00
5130;DHT22;2583;50.946;6.954;2023-06-14T14:43:11;29.80;1.00
5130;DHT22;2583;50.946;6.954;2023-06-14T14:45:38;29.40;1.00
5130;DHT22;2583;50.946;6.954;2023-06-14T14:48:05;28.70;1.00
5130;DHT22;2583;50.946;6.954;2023-06-14T14:50:33;28.30;1.00
5130;DHT22;2583;50.946;6.954;2023-06-14T14:53:00;28.20;1.00
5130;DHT22;2583;50.946;6.954;2023-06-14T14:55:27;28.20;1.00
5130;DHT22;2583;50.946;6.954;2023-06-14T14:57:53;28.20;1.00
5130;DHT22;2583;50.946;6.954;2023-06-14T15:00:20;28.20;1.00
5130;DHT22;2583;50.946;6.954;2023-06-14T15:02:47;28.20;1.00
5130;DHT22;2583;50.946;6.954;2023-06-14T15:05:14;28.00;1.00
5130;DHT22;2583;50.946;6.954;2023-06-14T15:07:41;27.80;1.00
5130;DHT22;2583;50.946;6.954;2023-06-14T15:10:08;27.60;1.00
5130;DHT22;2583;50.946;6.954;2023-06-14T15:12:35;27.50;1.00
5130;DHT22;2583;50.946;6.954;2023-06-14T15:15:02;27.70;1.00
5130;DHT22;2583;50.946;6.954;2023-06-14T15:17:29;27.60;1.00
5130;DHT22;2583;50.946;6.954;2023-06-14T15:19:57;27.50;1.00
5130;DHT22;2583;50.946;6.954;2023-06-14T15:22:23;27.30;1.00
5130;DHT22;2583;50.946;6.954;2023-06-14T15:24:50;27.00;1.00
5130;DHT22;2583;50.946;6.954;2023-06-14T15:27:17;26.90;1.00
5130;DHT22;2583;50.946;6.954;2023-06-14T15:29:44;26.80;1.00
5130;DHT22;2583;50.946;6.954;2023-06-14T15:32:15;26.90;1.00
5130;DHT22;2583;50.946;6.954;2023-06-14T15:34:42;27.00;1.00
5130;DHT22;2583;50.946;6.954;2023-06-14T15:37:08;27.10;1.00
5130;DHT22;2583;50.946;6.954;2023-06-14T15:39:35;27.00;1.00
5130;DHT22;2583;50.946;6.954;2023-06-14T15:42:03;27.10;1.00
5130;DHT22;2583;50.946;6.954;2023-06-14T15:44:30;27.30;1.00
5130;DHT22;2583;50.946;6.954;2023-06-14T15:46:56;27.50;1.00
5130;DHT22;2583;50.946;6.954;2023-06-14T15:49:23;27.50;1.00
5130;DHT22;2583;50.946;6.954;2023-06-14T15:51:50;27.30;1.00
5130;DHT22;2583;50.946;6.954;2023-06-14T15:54:17;27.20;1.00
5130;DHT22;2583;50.946;6.954;2023-06-14T15:56:43;27.00;1.00
5130;DHT22;2583;50.946;6.954;2023-06-14T15:59:10;26.80;1.00
5130;DHT22;2583;50.946;6.954;2023-06-14T16:01:37;26.60;1.00
5130;DHT22;2583;50.946;6.954;2023-06-14T16:04:04;26.60;1.00
5130;DHT22;2583;50.946;6.954;2023-06-14T16:06:31;26.60;1.00
5130;DHT22;2583;50.946;6.954;2023-06-14T16:08:58;26.60;1.00
5130;DHT22;2583;50.946;6.954;2023-06-14T16:11:25;26.80;1.00
5130;DHT22;2583;50.946;6.954;2023-06-14T16:13:51;26.70;1.00
5130;DHT22;2583;50.946;6.954;2023-06-14T16:16:18;26.50;1.00
5130;DHT22;2583;50.946;6.954;2023-06-14T16:18:47;26.30;1.00
5130;DHT22;2583;50.946;6.954;2023-06-14T16:21:14;26.20;1.00
5130;DHT22;2583;50.946;6.954;2023-06-14T16:23:41;26.10;1.00
5130;DHT22;2583;50.946;6.954;2023-06-14T16:26:10;26.20;1.00
5130;DHT22;2583;50.946;6.954;2023-06-14T16:28:40;26.40;1.00
5130;DHT22;2583;50.946;6.954;2023-06-14T16:31:12;26.40;1.00
5130;DHT22;2583;50.946;6.954;2023-06-14T16:33:41;26.50;1.00
5130;DHT22;2583;50.946;6.954;2023-06-14T16:36:08;26.60;1.00
5130;DHT22;2583;50.946;6.954;2023-06-14T16:38:34;26.70;1.00
5130;DHT22;2583;50.946;6.954;2023-06-14T16:41:01;26.80;1.00